PSA421 KPHX-KLAX
Flight info
| Callsign | PSA421 |
|---|---|
| Flight time | 1h 3m |
| Altitude | 28000 |
| Route | KEENS3 WLVRN ESTWD HLYWD1 |
| Aircraft | B462/M-SDFGRWY/LB1 |
Departure
| Time | 2026-04-25 23:35 |
|---|---|
| Airport | Phoenix Sky Harbor International Airport (KPHX) |
Arrival
| Time | 2026-04-26 00:38 |
|---|---|
| Airport | Los Angeles International Airport (KLAX) |
| Time | Latitude | Longitude | Altitude | Speed | Heading |
|---|---|---|---|---|---|
| 2026-04-25 23:16 | 33.43358 | -111.99475 | 1155 ft | 0 kts | 68° |
| 2026-04-25 23:27 | 33.43353 | -111.99491 | 1153 ft | 2 kts | 75° |
| 2026-04-25 23:27 | 33.43351 | -111.99514 | 1150 ft | 2 kts | 100° |
| 2026-04-25 23:28 | 33.43359 | -111.99530 | 1151 ft | 2 kts | 162° |
| 2026-04-25 23:28 | 33.43365 | -111.99532 | 1155 ft | 1 kts | 179° |
| 2026-04-25 23:32 | 33.43349 | -111.99532 | 1151 ft | 3 kts | 179° |
| 2026-04-25 23:32 | 33.43339 | -111.99531 | 1154 ft | 0 kts | 179° |
| 2026-04-25 23:33 | 33.43332 | -111.99531 | 1153 ft | 4 kts | 181° |
| 2026-04-25 23:33 | 33.43278 | -111.99544 | 1155 ft | 11 kts | 199° |
| 2026-04-25 23:33 | 33.43214 | -111.99516 | 1152 ft | 12 kts | 94° |
| 2026-04-25 23:33 | 33.43213 | -111.99406 | 1152 ft | 15 kts | 88° |
| 2026-04-25 23:34 | 33.43147 | -111.99346 | 1157 ft | 13 kts | 182° |
| 2026-04-25 23:34 | 33.43105 | -111.99405 | 1158 ft | 5 kts | 271° |
| 2026-04-25 23:34 | 33.43103 | -111.99597 | 1157 ft | 53 kts | 269° |
| 2026-04-25 23:34 | 33.43103 | -112.00269 | 1154 ft | 105 kts | 269° |
| 2026-04-25 23:35 | 33.43100 | -112.01302 | 1187 ft | 138 kts | 270° |
| 2026-04-25 23:35 | 33.43100 | -112.02459 | 1504 ft | 143 kts | 268° |
| 2026-04-25 23:35 | 33.43067 | -112.03664 | 1827 ft | 148 kts | 265° |
| 2026-04-25 23:35 | 33.42988 | -112.04943 | 2074 ft | 159 kts | 265° |
| 2026-04-25 23:36 | 33.42901 | -112.06304 | 2381 ft | 168 kts | 265° |
| 2026-04-25 23:36 | 33.42778 | -112.07233 | 2567 ft | 173 kts | 256° |
| 2026-04-25 23:36 | 33.42270 | -112.09169 | 2765 ft | 194 kts | 250° |
| 2026-04-25 23:36 | 33.41781 | -112.10792 | 2894 ft | 219 kts | 250° |
| 2026-04-25 23:37 | 33.41229 | -112.12586 | 3092 ft | 240 kts | 249° |
| 2026-04-25 23:37 | 33.40634 | -112.14528 | 3337 ft | 252 kts | 249° |
| 2026-04-25 23:37 | 33.40044 | -112.16472 | 3869 ft | 252 kts | 250° |
| 2026-04-25 23:37 | 33.39442 | -112.18461 | 4391 ft | 254 kts | 250° |
| 2026-04-25 23:38 | 33.39148 | -112.20541 | 4879 ft | 257 kts | 271° |
| 2026-04-25 23:38 | 33.39339 | -112.22678 | 5390 ft | 259 kts | 277° |
| 2026-04-25 23:38 | 33.39647 | -112.24799 | 5922 ft | 259 kts | 277° |
| 2026-04-25 23:38 | 33.39995 | -112.26918 | 6407 ft | 259 kts | 278° |
| 2026-04-25 23:39 | 33.40354 | -112.29037 | 6871 ft | 261 kts | 278° |
| 2026-04-25 23:39 | 33.40711 | -112.31175 | 7316 ft | 262 kts | 278° |
| 2026-04-25 23:39 | 33.41064 | -112.33325 | 7773 ft | 264 kts | 278° |
| 2026-04-25 23:39 | 33.41404 | -112.35481 | 8301 ft | 264 kts | 277° |
| 2026-04-25 23:40 | 33.41736 | -112.37657 | 8834 ft | 266 kts | 277° |
| 2026-04-25 23:40 | 33.42067 | -112.39840 | 9399 ft | 267 kts | 277° |
| 2026-04-25 23:40 | 33.42402 | -112.42039 | 9960 ft | 269 kts | 277° |
| 2026-04-25 23:40 | 33.42739 | -112.44243 | 10529 ft | 269 kts | 276° |
| 2026-04-25 23:41 | 33.43060 | -112.46429 | 11109 ft | 269 kts | 276° |
| 2026-04-25 23:41 | 33.43377 | -112.48640 | 11741 ft | 269 kts | 276° |
| 2026-04-25 23:41 | 33.43696 | -112.50849 | 12367 ft | 270 kts | 276° |
| 2026-04-25 23:41 | 33.44018 | -112.53067 | 12990 ft | 270 kts | 276° |
| 2026-04-25 23:42 | 33.44342 | -112.55285 | 13616 ft | 271 kts | 276° |
| 2026-04-25 23:42 | 33.44673 | -112.57509 | 14179 ft | 272 kts | 276° |
| 2026-04-25 23:42 | 33.45011 | -112.59743 | 14724 ft | 273 kts | 276° |
| 2026-04-25 23:42 | 33.45239 | -112.61994 | 15275 ft | 272 kts | 269° |
| 2026-04-25 23:43 | 33.45302 | -112.64262 | 15806 ft | 273 kts | 267° |
| 2026-04-25 23:43 | 33.45316 | -112.66536 | 16334 ft | 274 kts | 266° |
| 2026-04-25 23:43 | 33.45315 | -112.68056 | 16674 ft | 275 kts | 266° |
| 2026-04-25 23:43 | 33.45302 | -112.71101 | 17312 ft | 277 kts | 266° |
| 2026-04-25 23:44 | 33.45298 | -112.73417 | 17775 ft | 279 kts | 266° |
| 2026-04-25 23:44 | 33.45306 | -112.74983 | 18077 ft | 280 kts | 266° |
| 2026-04-25 23:44 | 33.45337 | -112.78084 | 18579 ft | 282 kts | 266° |
| 2026-04-25 23:44 | 33.45481 | -112.80432 | 18933 ft | 288 kts | 278° |
| 2026-04-25 23:45 | 33.46117 | -112.82730 | 19266 ft | 293 kts | 285° |
| 2026-04-25 23:45 | 33.46908 | -112.84997 | 19598 ft | 296 kts | 287° |
| 2026-04-25 23:45 | 33.47472 | -112.86518 | 19809 ft | 297 kts | 287° |
| 2026-04-25 23:45 | 33.48328 | -112.88779 | 20142 ft | 298 kts | 287° |
| 2026-04-25 23:46 | 33.49185 | -112.91051 | 20448 ft | 299 kts | 287° |
| 2026-04-25 23:46 | 33.50029 | -112.93334 | 20744 ft | 300 kts | 287° |
| 2026-04-25 23:46 | 33.50853 | -112.95606 | 21023 ft | 301 kts | 286° |
| 2026-04-25 23:46 | 33.51682 | -112.97918 | 21298 ft | 302 kts | 286° |
| 2026-04-25 23:47 | 33.52510 | -113.00239 | 21578 ft | 304 kts | 286° |
| 2026-04-25 23:47 | 33.53328 | -113.02575 | 21848 ft | 305 kts | 286° |
| 2026-04-25 23:47 | 33.54145 | -113.04926 | 22126 ft | 306 kts | 286° |
| 2026-04-25 23:47 | 33.54967 | -113.07280 | 22442 ft | 305 kts | 286° |
| 2026-04-25 23:48 | 33.55787 | -113.09643 | 22633 ft | 308 kts | 286° |
| 2026-04-25 23:48 | 33.56616 | -113.12017 | 22907 ft | 310 kts | 286° |
| 2026-04-25 23:48 | 33.57448 | -113.14410 | 23171 ft | 311 kts | 286° |
| 2026-04-25 23:48 | 33.58282 | -113.16814 | 23432 ft | 313 kts | 286° |
| 2026-04-25 23:49 | 33.59119 | -113.19228 | 23669 ft | 314 kts | 285° |
| 2026-04-25 23:49 | 33.59953 | -113.21652 | 23913 ft | 315 kts | 286° |
| 2026-04-25 23:49 | 33.60790 | -113.24081 | 24157 ft | 316 kts | 286° |
| 2026-04-25 23:49 | 33.61629 | -113.26518 | 24390 ft | 317 kts | 285° |
| 2026-04-25 23:50 | 33.62471 | -113.28964 | 24627 ft | 318 kts | 285° |
| 2026-04-25 23:50 | 33.63315 | -113.31417 | 24865 ft | 318 kts | 285° |
| 2026-04-25 23:50 | 33.64157 | -113.33871 | 25167 ft | 317 kts | 285° |
| 2026-04-25 23:50 | 33.64994 | -113.36316 | 25445 ft | 316 kts | 285° |
| 2026-04-25 23:51 | 33.65829 | -113.38755 | 25731 ft | 315 kts | 285° |
| 2026-04-25 23:51 | 33.66667 | -113.41189 | 26008 ft | 315 kts | 285° |
| 2026-04-25 23:51 | 33.67493 | -113.43576 | 26285 ft | 314 kts | 285° |
| 2026-04-25 23:51 | 33.68333 | -113.45993 | 26558 ft | 313 kts | 285° |
| 2026-04-25 23:52 | 33.69175 | -113.48405 | 26834 ft | 312 kts | 285° |
| 2026-04-25 23:52 | 33.70017 | -113.50800 | 27102 ft | 311 kts | 285° |
| 2026-04-25 23:52 | 33.70854 | -113.53207 | 27370 ft | 310 kts | 284° |
| 2026-04-25 23:52 | 33.71674 | -113.55603 | 27629 ft | 310 kts | 284° |
| 2026-04-25 23:53 | 33.72490 | -113.58007 | 27768 ft | 312 kts | 284° |
| 2026-04-25 23:53 | 33.73313 | -113.60445 | 27828 ft | 317 kts | 284° |
| 2026-04-25 23:53 | 33.74156 | -113.62924 | 27843 ft | 323 kts | 285° |
| 2026-04-25 23:53 | 33.75013 | -113.65405 | 27861 ft | 329 kts | 285° |
| 2026-04-25 23:54 | 33.75901 | -113.67965 | 27862 ft | 335 kts | 285° |
| 2026-04-25 23:54 | 33.76802 | -113.70580 | 27865 ft | 341 kts | 285° |
| 2026-04-25 23:54 | 33.77709 | -113.73239 | 27865 ft | 347 kts | 285° |
| 2026-04-25 23:54 | 33.78636 | -113.75952 | 27858 ft | 353 kts | 285° |
| 2026-04-25 23:55 | 33.79575 | -113.78707 | 27844 ft | 359 kts | 285° |
| 2026-04-25 23:55 | 33.80529 | -113.81517 | 27832 ft | 365 kts | 285° |
| 2026-04-25 23:55 | 33.81492 | -113.84365 | 27824 ft | 371 kts | 285° |
| 2026-04-25 23:55 | 33.82470 | -113.87266 | 27808 ft | 376 kts | 285° |
| 2026-04-25 23:56 | 33.83456 | -113.90205 | 27795 ft | 382 kts | 285° |
| 2026-04-25 23:56 | 33.84453 | -113.93177 | 27788 ft | 385 kts | 285° |
| 2026-04-25 23:56 | 33.85455 | -113.96168 | 27782 ft | 387 kts | 285° |
| 2026-04-25 23:56 | 33.86466 | -113.99184 | 27767 ft | 388 kts | 285° |
| 2026-04-25 23:57 | 33.87470 | -114.02181 | 27768 ft | 385 kts | 285° |
| 2026-04-25 23:57 | 33.88475 | -114.05172 | 27757 ft | 384 kts | 285° |
| 2026-04-25 23:57 | 33.89477 | -114.08145 | 27759 ft | 382 kts | 285° |
| 2026-04-25 23:57 | 33.90463 | -114.11065 | 27763 ft | 381 kts | 285° |
| 2026-04-25 23:58 | 33.91256 | -114.14071 | 27766 ft | 374 kts | 278° |
| 2026-04-25 23:58 | 33.91800 | -114.17115 | 27758 ft | 371 kts | 275° |
| 2026-04-25 23:58 | 33.92264 | -114.20173 | 27751 ft | 369 kts | 275° |
| 2026-04-25 23:58 | 33.92715 | -114.23209 | 27745 ft | 368 kts | 274° |
| 2026-04-25 23:59 | 33.93176 | -114.26241 | 27743 ft | 367 kts | 275° |
| 2026-04-25 23:59 | 33.93655 | -114.29268 | 27743 ft | 369 kts | 275° |
| 2026-04-25 23:59 | 33.94145 | -114.32301 | 27749 ft | 370 kts | 275° |
| 2026-04-25 23:59 | 33.94642 | -114.35353 | 27751 ft | 372 kts | 275° |
| 2026-04-26 00:00 | 33.95150 | -114.38420 | 27749 ft | 374 kts | 276° |
| 2026-04-26 00:00 | 33.95670 | -114.41490 | 27751 ft | 375 kts | 275° |
| 2026-04-26 00:00 | 33.96187 | -114.44581 | 27744 ft | 376 kts | 275° |
| 2026-04-26 00:00 | 33.96696 | -114.47632 | 27746 ft | 377 kts | 275° |
| 2026-04-26 00:01 | 33.97214 | -114.50737 | 27745 ft | 379 kts | 275° |
| 2026-04-26 00:01 | 33.97734 | -114.53853 | 27742 ft | 380 kts | 275° |
| 2026-04-26 00:01 | 33.98255 | -114.56975 | 27749 ft | 381 kts | 275° |
| 2026-04-26 00:01 | 33.98779 | -114.60108 | 27748 ft | 382 kts | 275° |
| 2026-04-26 00:02 | 33.99303 | -114.63243 | 27746 ft | 383 kts | 275° |
| 2026-04-26 00:02 | 33.99831 | -114.66389 | 27747 ft | 383 kts | 275° |
| 2026-04-26 00:02 | 34.00362 | -114.69548 | 27748 ft | 384 kts | 276° |
| 2026-04-26 00:02 | 34.00895 | -114.72713 | 27749 ft | 385 kts | 276° |
| 2026-04-26 00:03 | 34.01429 | -114.75881 | 27742 ft | 386 kts | 276° |
| 2026-04-26 00:03 | 34.01964 | -114.79049 | 27739 ft | 386 kts | 276° |
| 2026-04-26 00:03 | 34.02500 | -114.82234 | 27738 ft | 386 kts | 275° |
| 2026-04-26 00:03 | 34.03014 | -114.85416 | 27739 ft | 386 kts | 275° |
| 2026-04-26 00:04 | 34.03527 | -114.88589 | 27737 ft | 386 kts | 275° |
| 2026-04-26 00:04 | 34.04046 | -114.91762 | 27733 ft | 384 kts | 275° |
| 2026-04-26 00:04 | 34.04551 | -114.94866 | 27728 ft | 381 kts | 275° |
| 2026-04-26 00:04 | 34.05058 | -114.97991 | 27734 ft | 379 kts | 275° |
| 2026-04-26 00:05 | 34.05559 | -115.01101 | 27736 ft | 376 kts | 275° |
| 2026-04-26 00:05 | 34.06056 | -115.04192 | 27734 ft | 375 kts | 275° |
| 2026-04-26 00:05 | 34.06555 | -115.07280 | 27728 ft | 374 kts | 275° |
| 2026-04-26 00:05 | 34.07052 | -115.10356 | 27730 ft | 373 kts | 275° |
| 2026-04-26 00:06 | 34.07550 | -115.13432 | 27732 ft | 372 kts | 275° |
| 2026-04-26 00:06 | 34.08048 | -115.16488 | 27738 ft | 371 kts | 275° |
| 2026-04-26 00:06 | 34.08548 | -115.19541 | 27739 ft | 370 kts | 275° |
| 2026-04-26 00:06 | 34.09051 | -115.22590 | 27749 ft | 371 kts | 275° |
| 2026-04-26 00:07 | 34.09557 | -115.25651 | 27745 ft | 373 kts | 275° |
| 2026-04-26 00:07 | 34.10064 | -115.28721 | 27745 ft | 374 kts | 275° |
| 2026-04-26 00:07 | 34.10572 | -115.31802 | 27734 ft | 375 kts | 275° |
| 2026-04-26 00:07 | 34.11076 | -115.34898 | 27731 ft | 376 kts | 274° |
| 2026-04-26 00:08 | 34.11560 | -115.37999 | 27727 ft | 376 kts | 274° |
| 2026-04-26 00:08 | 34.12057 | -115.41105 | 27730 ft | 377 kts | 275° |
| 2026-04-26 00:08 | 34.12558 | -115.44219 | 27728 ft | 378 kts | 274° |
| 2026-04-26 00:08 | 34.13047 | -115.47299 | 27731 ft | 379 kts | 274° |
| 2026-04-26 00:09 | 34.13542 | -115.50421 | 27740 ft | 379 kts | 274° |
| 2026-04-26 00:09 | 34.14031 | -115.53556 | 27743 ft | 380 kts | 274° |
| 2026-04-26 00:09 | 34.14528 | -115.56699 | 27750 ft | 381 kts | 274° |
| 2026-04-26 00:09 | 34.15024 | -115.59847 | 27785 ft | 382 kts | 274° |
| 2026-04-26 00:10 | 34.15523 | -115.63009 | 27770 ft | 384 kts | 274° |
| 2026-04-26 00:10 | 34.16016 | -115.66174 | 27760 ft | 385 kts | 274° |
| 2026-04-26 00:10 | 34.16392 | -115.69363 | 27765 ft | 379 kts | 266° |
| 2026-04-26 00:10 | 34.16292 | -115.72519 | 27764 ft | 375 kts | 260° |
| 2026-04-26 00:11 | 34.16003 | -115.75649 | 27757 ft | 374 kts | 258° |
| 2026-04-26 00:11 | 34.15649 | -115.78766 | 27760 ft | 373 kts | 257° |
| 2026-04-26 00:11 | 34.15287 | -115.81868 | 27767 ft | 373 kts | 258° |
| 2026-04-26 00:11 | 34.14933 | -115.84964 | 27774 ft | 373 kts | 258° |
| 2026-04-26 00:12 | 34.14606 | -115.88036 | 27784 ft | 373 kts | 258° |
| 2026-04-26 00:12 | 34.14291 | -115.91148 | 27790 ft | 373 kts | 258° |
| 2026-04-26 00:12 | 34.13985 | -115.94254 | 27799 ft | 373 kts | 258° |
| 2026-04-26 00:12 | 34.13686 | -115.97365 | 27804 ft | 373 kts | 258° |
| 2026-04-26 00:13 | 34.13390 | -116.00472 | 27808 ft | 372 kts | 259° |
| 2026-04-26 00:13 | 34.13099 | -116.03566 | 27817 ft | 371 kts | 259° |
| 2026-04-26 00:13 | 34.12801 | -116.06664 | 27818 ft | 370 kts | 258° |
| 2026-04-26 00:13 | 34.12487 | -116.09749 | 27824 ft | 370 kts | 258° |
| 2026-04-26 00:14 | 34.12179 | -116.12823 | 27827 ft | 369 kts | 258° |
| 2026-04-26 00:14 | 34.11875 | -116.15860 | 27829 ft | 369 kts | 258° |
| 2026-04-26 00:14 | 34.11565 | -116.18941 | 27809 ft | 368 kts | 258° |
| 2026-04-26 00:14 | 34.11266 | -116.21998 | 27809 ft | 367 kts | 258° |
| 2026-04-26 00:15 | 34.10965 | -116.25050 | 27826 ft | 366 kts | 258° |
| 2026-04-26 00:15 | 34.10663 | -116.28099 | 27836 ft | 366 kts | 258° |
| 2026-04-26 00:15 | 34.10358 | -116.31145 | 27837 ft | 365 kts | 258° |
| 2026-04-26 00:15 | 34.10054 | -116.34188 | 27863 ft | 365 kts | 258° |
| 2026-04-26 00:16 | 34.09734 | -116.37224 | 27831 ft | 365 kts | 257° |
| 2026-04-26 00:16 | 34.09396 | -116.40258 | 27807 ft | 364 kts | 257° |
| 2026-04-26 00:16 | 34.09067 | -116.43281 | 27796 ft | 364 kts | 257° |
| 2026-04-26 00:16 | 34.08743 | -116.46305 | 27802 ft | 363 kts | 257° |
| 2026-04-26 00:17 | 34.08410 | -116.49324 | 27818 ft | 362 kts | 257° |
| 2026-04-26 00:17 | 34.08084 | -116.52294 | 27822 ft | 362 kts | 257° |
| 2026-04-26 00:17 | 34.07757 | -116.55312 | 27473 ft | 366 kts | 257° |
| 2026-04-26 00:17 | 34.07439 | -116.58342 | 27003 ft | 362 kts | 258° |
| 2026-04-26 00:18 | 34.07142 | -116.61339 | 26527 ft | 358 kts | 258° |
| 2026-04-26 00:18 | 34.06873 | -116.64314 | 26047 ft | 356 kts | 259° |
| 2026-04-26 00:18 | 34.06609 | -116.67300 | 25550 ft | 359 kts | 259° |
| 2026-04-26 00:18 | 34.06332 | -116.70312 | 25073 ft | 364 kts | 259° |
| 2026-04-26 00:19 | 34.06055 | -116.73353 | 24612 ft | 365 kts | 259° |
| 2026-04-26 00:19 | 34.05777 | -116.76354 | 24107 ft | 356 kts | 259° |
| 2026-04-26 00:19 | 34.05505 | -116.79288 | 23648 ft | 349 kts | 259° |
| 2026-04-26 00:19 | 34.05227 | -116.82167 | 23152 ft | 342 kts | 259° |
| 2026-04-26 00:20 | 34.04959 | -116.85000 | 22644 ft | 338 kts | 259° |
| 2026-04-26 00:20 | 34.04691 | -116.87806 | 22110 ft | 336 kts | 258° |
| 2026-04-26 00:20 | 34.04385 | -116.90584 | 21808 ft | 330 kts | 257° |
| 2026-04-26 00:20 | 34.04039 | -116.93308 | 21352 ft | 329 kts | 256° |
| 2026-04-26 00:21 | 34.03677 | -116.96018 | 20742 ft | 327 kts | 256° |
| 2026-04-26 00:21 | 34.03310 | -116.98683 | 20125 ft | 327 kts | 257° |
| 2026-04-26 00:21 | 34.02949 | -117.01391 | 19507 ft | 326 kts | 257° |
| 2026-04-26 00:21 | 34.02600 | -117.04097 | 18914 ft | 326 kts | 257° |
| 2026-04-26 00:22 | 34.02268 | -117.06794 | 18332 ft | 325 kts | 257° |
| 2026-04-26 00:22 | 34.01955 | -117.09495 | 17676 ft | 325 kts | 258° |
| 2026-04-26 00:22 | 34.01646 | -117.12190 | 17016 ft | 324 kts | 258° |
| 2026-04-26 00:22 | 34.01325 | -117.14868 | 16388 ft | 322 kts | 257° |
| 2026-04-26 00:23 | 34.01000 | -117.17531 | 15762 ft | 321 kts | 257° |
| 2026-04-26 00:23 | 34.00691 | -117.20162 | 15378 ft | 312 kts | 258° |
| 2026-04-26 00:23 | 34.00396 | -117.22703 | 15147 ft | 301 kts | 257° |
| 2026-04-26 00:23 | 34.00102 | -117.25183 | 14773 ft | 296 kts | 257° |
| 2026-04-26 00:24 | 33.99820 | -117.27594 | 14557 ft | 285 kts | 257° |
| 2026-04-26 00:24 | 33.99547 | -117.29906 | 14290 ft | 281 kts | 257° |
| 2026-04-26 00:24 | 33.99275 | -117.32242 | 13912 ft | 282 kts | 257° |
| 2026-04-26 00:24 | 33.98997 | -117.34590 | 13700 ft | 284 kts | 257° |
| 2026-04-26 00:25 | 33.98709 | -117.36956 | 13450 ft | 287 kts | 257° |
| 2026-04-26 00:25 | 33.98416 | -117.39343 | 13205 ft | 288 kts | 257° |
| 2026-04-26 00:25 | 33.98121 | -117.41749 | 12994 ft | 291 kts | 257° |
| 2026-04-26 00:25 | 33.97832 | -117.44167 | 12779 ft | 292 kts | 258° |
| 2026-04-26 00:26 | 33.97548 | -117.46598 | 12558 ft | 293 kts | 258° |
| 2026-04-26 00:26 | 33.97369 | -117.49053 | 12319 ft | 299 kts | 270° |
| 2026-04-26 00:26 | 33.97745 | -117.51544 | 12074 ft | 304 kts | 278° |
| 2026-04-26 00:26 | 33.98302 | -117.54004 | 11880 ft | 305 kts | 281° |
| 2026-04-26 00:27 | 33.98912 | -117.56453 | 11696 ft | 305 kts | 282° |
| 2026-04-26 00:27 | 33.99530 | -117.58878 | 11413 ft | 307 kts | 282° |
| 2026-04-26 00:27 | 34.00158 | -117.61327 | 11093 ft | 303 kts | 282° |
| 2026-04-26 00:27 | 34.00766 | -117.63736 | 10763 ft | 297 kts | 282° |
| 2026-04-26 00:28 | 34.01340 | -117.66103 | 10433 ft | 292 kts | 282° |
| 2026-04-26 00:28 | 34.01886 | -117.68405 | 10193 ft | 278 kts | 282° |
| 2026-04-26 00:28 | 34.02249 | -117.70638 | 9965 ft | 267 kts | 267° |
| 2026-04-26 00:28 | 34.02150 | -117.72856 | 9710 ft | 263 kts | 261° |
| 2026-04-26 00:29 | 34.01935 | -117.75030 | 9436 ft | 261 kts | 259° |
| 2026-04-26 00:29 | 34.01677 | -117.77191 | 9184 ft | 259 kts | 259° |
| 2026-04-26 00:29 | 34.01411 | -117.79333 | 8871 ft | 259 kts | 259° |
| 2026-04-26 00:29 | 34.01153 | -117.81490 | 8568 ft | 261 kts | 260° |
| 2026-04-26 00:30 | 34.00902 | -117.83669 | 8336 ft | 263 kts | 260° |
| 2026-04-26 00:30 | 34.00658 | -117.85867 | 8169 ft | 265 kts | 260° |
| 2026-04-26 00:30 | 34.00418 | -117.88084 | 7838 ft | 262 kts | 261° |
| 2026-04-26 00:30 | 34.00191 | -117.90269 | 7436 ft | 269 kts | 261° |
| 2026-04-26 00:31 | 33.99969 | -117.92524 | 7235 ft | 266 kts | 262° |
| 2026-04-26 00:31 | 33.99757 | -117.94716 | 6885 ft | 268 kts | 262° |
| 2026-04-26 00:31 | 33.99537 | -117.96963 | 6481 ft | 271 kts | 262° |
| 2026-04-26 00:31 | 33.99312 | -117.99207 | 6201 ft | 268 kts | 262° |
| 2026-04-26 00:32 | 33.99064 | -118.01426 | 5961 ft | 265 kts | 256° |
| 2026-04-26 00:32 | 33.98368 | -118.03448 | 5743 ft | 260 kts | 252° |
| 2026-04-26 00:32 | 33.98295 | -118.06976 | 5532 ft | 251 kts | 273° |
| 2026-04-26 00:33 | 33.98377 | -118.09060 | 5369 ft | 247 kts | 266° |
| 2026-04-26 00:33 | 33.98170 | -118.11128 | 5072 ft | 250 kts | 261° |
| 2026-04-26 00:33 | 33.97945 | -118.13171 | 4963 ft | 238 kts | 262° |
| 2026-04-26 00:33 | 33.97750 | -118.15155 | 4593 ft | 243 kts | 262° |
| 2026-04-26 00:34 | 33.97570 | -118.17208 | 4166 ft | 252 kts | 262° |
| 2026-04-26 00:34 | 33.97351 | -118.19322 | 3757 ft | 257 kts | 262° |
| 2026-04-26 00:34 | 33.97143 | -118.21473 | 3398 ft | 258 kts | 264° |
| 2026-04-26 00:34 | 33.96947 | -118.23607 | 3036 ft | 249 kts | 262° |
| 2026-04-26 00:35 | 33.96736 | -118.25462 | 2763 ft | 210 kts | 261° |
| 2026-04-26 00:35 | 33.96528 | -118.27102 | 2404 ft | 185 kts | 261° |
| 2026-04-26 00:35 | 33.96372 | -118.28613 | 2206 ft | 176 kts | 264° |
| 2026-04-26 00:35 | 33.96252 | -118.30046 | 1952 ft | 168 kts | 263° |
| 2026-04-26 00:36 | 33.96130 | -118.31288 | 1691 ft | 160 kts | 262° |
| 2026-04-26 00:36 | 33.95999 | -118.32550 | 1438 ft | 142 kts | 262° |
| 2026-04-26 00:36 | 33.95879 | -118.33664 | 1212 ft | 128 kts | 264° |
| 2026-04-26 00:36 | 33.95783 | -118.34694 | 1029 ft | 122 kts | 263° |
| 2026-04-26 00:37 | 33.95678 | -118.35696 | 894 ft | 120 kts | 263° |
| 2026-04-26 00:37 | 33.95569 | -118.36692 | 742 ft | 118 kts | 262° |
| 2026-04-26 00:37 | 33.95470 | -118.37698 | 588 ft | 123 kts | 262° |
| 2026-04-26 00:37 | 33.95361 | -118.38712 | 420 ft | 119 kts | 263° |
| 2026-04-26 00:38 | 33.95268 | -118.39657 | 250 ft | 113 kts | 263° |
| 2026-04-26 00:38 | 33.95173 | -118.40565 | 130 ft | 103 kts | 262° |
| 2026-04-26 00:38 | 33.95102 | -118.41267 | 125 ft | 60 kts | 263° |
| 2026-04-26 00:38 | 33.95058 | -118.41685 | 125 ft | 45 kts | 263° |
| 2026-04-26 00:39 | 33.95020 | -118.42060 | 125 ft | 45 kts | 263° |
| 2026-04-26 00:39 | 33.94976 | -118.42426 | 121 ft | 43 kts | 251° |
| 2026-04-26 00:39 | 33.94843 | -118.42690 | 123 ft | 33 kts | 224° |
| 2026-04-26 00:39 | 33.94669 | -118.42776 | 124 ft | 18 kts | 177° |
| 2026-04-26 00:40 | 33.94651 | -118.42773 | 125 ft | 0 kts | 170° |
| 2026-04-26 00:40 | 33.94647 | -118.42771 | 125 ft | 2 kts | 161° |
| 2026-04-26 00:40 | 33.94637 | -118.42715 | 125 ft | 11 kts | 85° |
| 2026-04-26 00:41 | 33.94647 | -118.42585 | 125 ft | 19 kts | 84° |
| 2026-04-26 00:41 | 33.94664 | -118.42407 | 123 ft | 24 kts | 81° |
| 2026-04-26 00:41 | 33.94688 | -118.42193 | 124 ft | 27 kts | 83° |
| 2026-04-26 00:41 | 33.94711 | -118.41956 | 125 ft | 30 kts | 82° |
| 2026-04-26 00:42 | 33.94737 | -118.41710 | 125 ft | 30 kts | 83° |
| 2026-04-26 00:42 | 33.94763 | -118.41460 | 123 ft | 30 kts | 80° |
| 2026-04-26 00:42 | 33.94802 | -118.41213 | 124 ft | 30 kts | 83° |
| 2026-04-26 00:42 | 33.94828 | -118.40963 | 122 ft | 30 kts | 83° |
| 2026-04-26 00:43 | 33.94854 | -118.40712 | 125 ft | 30 kts | 82° |
| 2026-04-26 00:43 | 33.94878 | -118.40464 | 124 ft | 30 kts | 83° |
| 2026-04-26 00:43 | 33.94902 | -118.40241 | 124 ft | 24 kts | 84° |
| 2026-04-26 00:43 | 33.94894 | -118.40090 | 121 ft | 13 kts | 149° |
| 2026-04-26 00:44 | 33.94837 | -118.40149 | 125 ft | 14 kts | 265° |
| 2026-04-26 00:44 | 33.94791 | -118.40262 | 122 ft | 16 kts | 190° |
| 2026-04-26 00:44 | 33.94692 | -118.40246 | 123 ft | 11 kts | 147° |
| 2026-04-26 00:44 | 33.94687 | -118.40186 | 125 ft | 4 kts | 82° |
| 2026-04-26 00:45 | 33.94688 | -118.40183 | 125 ft | 0 kts | 82° |